Terminal Aerodrome Forecast
Issued by NWS Wilmington, OH

Current Version | Previous Version | Text Only | Print | Product List | Glossary Off
Versions: 1 2 3 4 5 6 7 8 9 10 11 12 13 14 15 16

218
FTUS41 KILN 131128
TAFCMH
TAF
KCMH 131128Z 1312/1412 32011KT P6SM FEW022
     FM131700 30012KT P6SM VCSH BKN035
     FM132300 29005KT P6SM SCT025 BKN040=

USA.gov is the U.S. government's official web portal to all federal, state and local government web resources and services.